»·PEaware :: N1718G KOAK-KLAX

N1718G :: KOAK-KLAX

FLIGHT INFORMATION

Flight Status: Arrived
Operator: Privately registered:
United States
More flights under this callsign
Pilot: Spencer M. (27733)
Aircraft: ECLIPSE 500
(EA50)
More flights by this aircraft type
Origin: KOAK Metro Oakland Intl
United States
Destination: KLAX Los Angeles Intl
United States
More flights between these airports :: More routes between these airports
Route: SKYL1 AVE T259 EHF WAYVE1
File this flight plan on PilotEdge
Remarks:
Altitude:
(Current/Filed)
21,000ft
Speed:
(Current/Filed)
300kts
Departed: 05-Oct-20 08:31 AM
Arrived: 05-Oct-20 09:52 AM
Distance/Time
Traveled:
294nm/1:20
Distance/Time
To Go:
Arrived

Flight Plot

Page will automatically refresh every two minutes.

Flight plan parsing failed; only flown route is shown


Map Options




Map Legend


Flown Route
Filed Route
Departure Airport
Arrival Airport
Navaid (VOR, NDB)
Fix

Horizontal Profiles

Position Reports

Time Latitude Longitude Heading Altitude Ground
Speed
05-Oct-20 08:13 37.727838 -122.207718 307 8ft 0kts
05-Oct-20 08:14 37.727838 -122.207718 307 8ft 0kts
05-Oct-20 08:15 37.727838 -122.207718 307 8ft 0kts
05-Oct-20 08:16 37.727838 -122.207718 307 8ft 0kts
05-Oct-20 08:17 37.727838 -122.207718 307 8ft 0kts
05-Oct-20 08:18 37.727838 -122.207718 307 8ft 0kts
05-Oct-20 08:19 37.727838 -122.207718 307 8ft 0kts
05-Oct-20 08:20 37.727838 -122.207718 307 8ft 0kts
05-Oct-20 08:21 37.727838 -122.207718 307 8ft 0kts
05-Oct-20 08:22 37.727838 -122.207718 307 8ft 0kts
05-Oct-20 08:23 37.727838 -122.207718 307 8ft 0kts
05-Oct-20 08:24 37.727592 -122.208322 209 8ft 7kts
05-Oct-20 08:25 37.726310 -122.206109 112 8ft 7kts
05-Oct-20 08:26 37.726074 -122.205350 111 8ft 6kts
05-Oct-20 08:27 37.725587 -122.204478 188 8ft 0kts
05-Oct-20 08:28 37.725587 -122.204478 188 8ft 0kts
05-Oct-20 08:29 37.725041 -122.204857 238 8ft 12kts
05-Oct-20 08:30 37.733970 -122.233844 291 513ft 149kts
05-Oct-20 08:31 37.752831 -122.295195 291 1956ft 189kts
05-Oct-20 08:32 37.730773 -122.346527 213 3401ft 189kts
05-Oct-20 08:33 37.687101 -122.382995 213 4801ft 190kts
05-Oct-20 08:34 37.637458 -122.375362 157 6190ft 201kts
05-Oct-20 08:35 37.581939 -122.350397 161 7506ft 226kts
05-Oct-20 08:36 37.519074 -122.326441 163 8817ft 244kts
05-Oct-20 08:37 37.452474 -122.302516 164 10124ft 252kts
05-Oct-20 08:39 37.386906 -122.274106 134 11528ft 250kts
05-Oct-20 08:40 37.340481 -122.210402 132 12929ft 246kts
05-Oct-20 08:41 37.294407 -122.147516 132 14254ft 243kts
05-Oct-20 08:42 37.249032 -122.085774 132 15549ft 239kts
05-Oct-20 08:43 37.204467 -122.025266 132 16845ft 233kts
05-Oct-20 08:44 37.161124 -121.966531 132 18139ft 226kts
05-Oct-20 08:45 37.119364 -121.910043 132 19429ft 217kts
05-Oct-20 08:46 37.079487 -121.856183 132 20658ft 208kts
05-Oct-20 08:47 37.037884 -121.800082 133 20975ft 240kts
05-Oct-20 08:48 36.989468 -121.734917 133 21000ft 270kts
05-Oct-20 08:49 36.936413 -121.663694 133 20998ft 288kts
05-Oct-20 08:50 36.880974 -121.589456 133 21004ft 298kts
05-Oct-20 08:51 36.822971 -121.511948 133 21011ft 314kts
05-Oct-20 08:52 36.762288 -121.431044 133 21013ft 324kts
05-Oct-20 08:53 36.700054 -121.348276 134 21008ft 330kts
05-Oct-20 08:53 36.647580 -121.278650 134 21009ft 332kts
05-Oct-20 08:55 36.573466 -121.180557 134 21009ft 334kts
05-Oct-20 08:56 36.509667 -121.096348 134 21005ft 336kts
05-Oct-20 08:56 36.456213 -121.025991 134 21009ft 338kts
05-Oct-20 08:58 36.380462 -120.926528 134 21017ft 341kts
05-Oct-20 08:59 36.315254 -120.841137 134 21017ft 342kts
05-Oct-20 08:59 36.260676 -120.769841 134 21018ft 343kts
05-Oct-20 09:00 36.194910 -120.684130 134 21017ft 344kts
05-Oct-20 09:01 36.128914 -120.598349 134 21018ft 344kts
05-Oct-20 09:02 36.063065 -120.512977 134 21018ft 344kts
05-Oct-20 09:03 35.996889 -120.427411 134 21013ft 344kts
05-Oct-20 09:04 35.930820 -120.342195 135 21008ft 344kts
05-Oct-20 09:05 35.868087 -120.253978 149 21004ft 333kts
05-Oct-20 09:06 35.789480 -120.208486 151 21014ft 294kts
05-Oct-20 09:07 35.721726 -120.158764 149 21014ft 276kts
05-Oct-20 09:08 35.657958 -120.109753 149 21036ft 265kts
05-Oct-20 09:09 35.595765 -120.061549 149 21037ft 270kts
05-Oct-20 09:10 35.529062 -120.009823 148 21038ft 295kts
05-Oct-20 09:11 35.457850 -119.954675 148 21023ft 310kts
05-Oct-20 09:12 35.383920 -119.897535 148 21008ft 318kts
05-Oct-20 09:13 35.308577 -119.839430 148 21005ft 322kts
05-Oct-20 09:14 35.235325 -119.775324 144 21008ft 327kts
05-Oct-20 09:15 35.162211 -119.708605 144 21007ft 330kts
05-Oct-20 09:16 35.088320 -119.641349 144 21004ft 332kts
05-Oct-20 09:17 35.014328 -119.574140 144 21002ft 333kts
05-Oct-20 09:18 34.940188 -119.506960 144 21003ft 331kts
05-Oct-20 09:19 34.866332 -119.440228 144 21006ft 328kts
05-Oct-20 09:20 34.793146 -119.374231 144 20980ft 327kts
05-Oct-20 09:21 34.720111 -119.308511 145 20930ft 327kts
05-Oct-20 09:22 34.651006 -119.246449 145 19998ft 281kts
05-Oct-20 09:23 34.591468 -119.193117 145 18879ft 262kts
05-Oct-20 09:24 34.533062 -119.140889 144 17853ft 265kts
05-Oct-20 09:25 34.471750 -119.086150 144 16957ft 279kts
05-Oct-20 09:26 34.408648 -119.029913 144 16036ft 282kts
05-Oct-20 09:27 34.346734 -118.974839 144 15028ft 272kts
05-Oct-20 09:28 34.286635 -118.921480 144 13997ft 262kts
05-Oct-20 09:29 34.232454 -118.872662 142 12692ft 226kts
05-Oct-20 09:30 34.184916 -118.829016 142 12024ft 204kts
05-Oct-20 09:31 34.139738 -118.783296 137 11305ft 224kts
05-Oct-20 09:32 34.092996 -118.732472 137 9902ft 226kts
05-Oct-20 09:33 34.047150 -118.682688 137 9043ft 213kts
05-Oct-20 09:34 34.025862 -118.623901 96 8765ft 196kts
05-Oct-20 09:35 34.019919 -118.560088 97 8417ft 187kts
05-Oct-20 09:36 34.013862 -118.496113 97 7504ft 193kts
05-Oct-20 09:37 34.002353 -118.435953 121 6799ft 177kts
05-Oct-20 09:38 33.978122 -118.385178 121 6041ft 171kts
05-Oct-20 09:39 33.955486 -118.337434 121 6011ft 164kts
05-Oct-20 09:40 33.932375 -118.288553 121 5668ft 175kts
05-Oct-20 09:41 33.907733 -118.236627 114 4990ft 173kts
05-Oct-20 09:42 33.912311 -118.180697 81 4275ft 167kts
05-Oct-20 09:43 33.921883 -118.127932 39 3589ft 152kts
05-Oct-20 09:44 33.957990 -118.138001 293 3584ft 151kts
05-Oct-20 09:45 33.956410 -118.191208 262 3017ft 171kts
05-Oct-20 09:46 33.951330 -118.242397 264 2162ft 138kts
05-Oct-20 09:47 33.947544 -118.283726 263 1675ft 119kts
05-Oct-20 09:48 33.943285 -118.322969 262 1206ft 119kts
05-Oct-20 09:49 33.939567 -118.360541 263 512ft 101kts
05-Oct-20 09:50 33.936529 -118.390932 263 128ft 77kts
05-Oct-20 09:51 33.934120 -118.401640 133 128ft 5kts
05-Oct-20 09:52 33.933121 -118.401390 169 128ft 0kts

Navigation Log

Ident Type
Flight plan parsing failed, navigation log unavailable